El Vista, Illinois
Current Conditions -  °F | °C
As of 3:54 PM on Monday 20 Oct 2014 (Local Time) from KPIA Reporting Station
Scattered Clouds Scattered Clouds  
Wind Chill: 69°   Ceiling: Unl
Heat Index: 69°   Visibility: 10mi
Dew Point: 43°   Wind: 13mph
Humidity: 39%   Direction: 300°WNW
Pressure: 29.92"   Gusts: 18mph
Location:  40.7064°N, 89.6585°W
Report Text: KPIA 202054Z 30011G16KT 10SM SCT055 21/06 A2992 RMK AO2 SLP132 T02060061 53003
Loading
Personal Weather Stations






























Interactive Weather Map
Tropical Storm Tracking
New forecast layout! Learn more

10-Day Weather Forecast

Advertisements
Track Severe Weather on mobile